Time;durP1;ratioP1;P1;durP2;ratioP2;P2;SDS_P1;SDS_P2;PMS_P1;PMS_P2;Temp;Humidity;BMP_temperature;BMP_pressure;BME280_temperature;BME280_humidity;BME280_pressure;Samples;Min_cycle;Max_cycle;Signal;HPM_P1;HPM_P2
2022/01/27 00:02:13;;;;;;;36.50;11.70;;;;;;;1.16;84.25;100976.48;105560;1281;22576;-60
2022/01/27 00:04:52;;;;;;;29.30;10.10;;;;;;;1.16;84.37;100985.77;105587;1281;22570;-62
2022/01/27 00:07:23;;;;;;;36.80;10.40;;;;;;;1.16;84.30;100986.70;105532;1281;22548;-61
2022/01/27 00:10:08;;;;;;;34.50;9.00;;;;;;;1.16;84.46;100984.34;105453;1282;22495;-61
2022/01/27 00:12:42;;;;;;;32.40;9.30;;;;;;;1.16;84.49;100992.84;105762;1282;25909;-61
2022/01/27 00:15:16;;;;;;;27.50;8.50;;;;;;;1.17;84.55;100994.71;105746;1277;24248;-63
2022/01/27 00:17:56;;;;;;;27.90;8.40;;;;;;;1.17;84.43;100992.75;105769;1276;25369;-60
2022/01/27 00:20:29;;;;;;;34.40;11.20;;;;;;;1.17;84.52;100986.39;106061;1271;25387;-61
2022/01/27 00:23:00;;;;;;;33.20;11.00;;;;;;;1.16;84.54;100971.06;106278;1270;24278;-60
2022/01/27 00:25:32;;;;;;;33.10;9.70;;;;;;;1.17;84.58;100973.27;106323;1270;22718;-61
2022/01/27 00:28:05;;;;;;;32.10;9.70;;;;;;;1.17;84.60;100969.81;106273;1271;25759;-61
2022/01/27 00:30:37;;;;;;;30.10;9.60;;;;;;;1.17;84.81;100965.17;106327;1271;24291;-61
2022/01/27 00:33:09;;;;;;;32.20;9.90;;;;;;;1.16;84.75;100961.95;106481;1270;25086;-60
2022/01/27 00:35:40;;;;;;;32.40;10.70;;;;;;;1.17;84.75;100961.08;106322;1270;23374;-61
2022/01/27 00:38:11;;;;;;;34.40;11.20;;;;;;;1.18;84.68;100963.45;106187;1270;22694;-60
2022/01/27 00:40:42;;;;;;;36.90;10.50;;;;;;;1.18;84.67;100955.35;106300;1270;25113;-61
2022/01/27 00:43:14;;;;;;;34.20;11.20;;;;;;;1.19;84.80;100954.08;106316;1270;22506;-60
2022/01/27 00:45:45;;;;;;;38.40;10.70;;;;;;;1.19;84.69;100948.90;106388;1270;22557;-60
2022/01/27 00:48:17;;;;;;;38.60;12.70;;;;;;;1.20;84.69;100953.06;106120;1271;22574;-61
2022/01/27 00:50:54;;;;;;;34.10;10.30;;;;;;;1.22;84.74;100952.59;106257;1271;25499;-62
2022/01/27 00:53:36;;;;;;;35.10;11.90;;;;;;;1.23;84.72;100951.48;106217;1271;22617;-61
2022/01/27 00:56:17;;;;;;;32.30;9.50;;;;;;;1.23;84.72;100959.27;106204;1271;22669;-60
2022/01/27 00:59:00;;;;;;;29.20;10.70;;;;;;;1.24;84.71;100953.61;106193;1270;22542;-62
2022/01/27 01:01:33;;;;;;;31.30;11.20;;;;;;;1.25;84.68;100953.66;106284;1270;25522;-61
2022/01/27 01:04:07;;;;;;;34.50;11.50;;;;;;;1.25;84.70;100950.14;106393;1271;24271;-60
2022/01/27 01:06:43;;;;;;;30.40;9.00;;;;;;;1.26;84.66;100955.09;106414;1270;25503;-61
2022/01/27 01:15:12;;;;;;;36.20;11.30;;;;;;;1.30;84.73;100933.22;106253;1270;22941;-62
2022/01/27 01:17:59;;;;;;;32.60;10.70;;;;;;;1.31;84.70;100930.87;106262;1270;23950;-61
2022/01/27 01:20:44;;;;;;;35.10;10.30;;;;;;;1.32;84.66;100931.88;106283;1270;22567;-61
2022/01/27 01:31:52;;;;;;;35.70;9.90;;;;;;;1.34;84.60;100915.36;106191;1270;25264;-61
2022/01/27 01:34:27;;;;;;;35.00;11.00;;;;;;;1.34;84.69;100920.31;106378;1270;24241;-62
2022/01/27 01:37:02;;;;;;;34.20;9.60;;;;;;;1.35;84.55;100921.09;106278;1270;25140;-61
2022/01/27 01:39:35;;;;;;;34.50;10.20;;;;;;;1.36;84.60;100921.48;106196;1270;22657;-61
2022/01/27 01:42:10;;;;;;;35.40;11.00;;;;;;;1.37;84.61;100921.63;106265;1270;22544;-62
2022/01/27 01:44:43;;;;;;;36.30;11.20;;;;;;;1.38;84.53;100919.82;106441;1270;24235;-61
2022/01/27 01:47:18;;;;;;;34.60;10.40;;;;;;;1.38;84.51;100924.70;106338;1270;25223;-60
2022/01/27 01:49:50;;;;;;;31.60;9.10;;;;;;;1.39;84.51;100919.27;106240;1270;22574;-62
2022/01/27 01:52:21;;;;;;;35.50;10.90;;;;;;;1.39;84.52;100908.57;106311;1270;24254;-61
2022/01/27 01:54:54;;;;;;;33.50;8.80;;;;;;;1.40;84.44;100906.23;106350;1270;25628;-62
2022/01/27 01:57:25;;;;;;;27.70;10.00;;;;;;;1.41;84.46;100901.80;106166;1270;281981;-62
2022/01/27 01:59:57;;;;;;;31.40;9.80;;;;;;;1.41;84.50;100901.10;106429;1270;22496;-62
2022/01/27 02:02:28;;;;;;;41.40;10.90;;;;;;;1.42;84.51;100900.46;106247;1270;22537;-61
2022/01/27 02:04:59;;;;;;;31.10;9.80;;;;;;;1.42;84.45;100895.42;106208;1269;25478;-60
2022/01/27 02:07:39;;;;;;;31.40;10.30;;;;;;;1.43;84.39;100897.77;106244;1270;24313;-60
2022/01/27 02:10:28;;;;;;;32.10;9.00;;;;;;;1.44;84.28;100894.48;106223;1270;24279;-61
2022/01/27 02:18:41;;;;;;;33.40;9.60;;;;;;;1.47;84.21;100912.61;105880;1276;22541;-61
2022/01/27 02:21:12;;;;;;;39.60;12.10;;;;;;;1.48;84.21;100911.60;105909;1276;26181;-60
2022/01/27 02:23:44;;;;;;;27.10;7.10;;;;;;;1.48;84.31;100909.31;106117;1274;22541;-61
2022/01/27 02:26:15;;;;;;;32.10;9.60;;;;;;;1.49;84.32;100911.74;105922;1276;23280;-61
2022/01/27 02:28:46;;;;;;;31.90;8.40;;;;;;;1.49;84.19;100909.55;105871;1276;22539;-62
2022/01/27 02:31:17;;;;;;;33.80;9.60;;;;;;;1.50;84.29;100904.44;105826;1275;24190;-62
2022/01/27 02:34:00;;;;;;;32.80;9.40;;;;;;;1.50;84.25;100905.77;105972;1274;22544;-60
2022/01/27 02:36:33;;;;;;;31.30;9.00;;;;;;;1.51;84.27;100902.70;106001;1276;25438;-61
2022/01/27 02:39:08;;;;;;;33.40;9.30;;;;;;;1.52;84.27;100903.23;105912;1276;25060;-61
2022/01/27 02:41:47;;;;;;;27.70;7.10;;;;;;;1.52;84.32;100894.91;105877;1276;25632;-61
2022/01/27 02:44:30;;;;;;;30.70;9.40;;;;;;;1.53;84.19;100886.41;106257;1276;22585;-61
2022/01/27 02:47:02;;;;;;;29.70;8.90;;;;;;;1.54;84.24;100881.23;105901;1276;25288;-62
2022/01/27 02:49:34;;;;;;;28.00;7.80;;;;;;;1.54;84.22;100877.75;105882;1276;23069;-62
2022/01/27 02:52:06;;;;;;;27.90;8.50;;;;;;;1.55;84.21;100874.06;105888;1276;25542;-61
2022/01/27 02:54:38;;;;;;;27.20;7.70;;;;;;;1.56;84.21;100873.19;106214;1271;25271;-62
2022/01/27 02:57:09;;;;;;;26.20;8.10;;;;;;;1.56;84.24;100874.83;106239;1270;24242;-62
2022/01/27 02:59:40;;;;;;;29.80;9.80;;;;;;;1.56;84.20;100873.96;106289;1271;25616;-62
2022/01/27 03:02:11;;;;;;;29.40;9.00;;;;;;;1.57;84.29;100876.80;106309;1270;25384;-62
2022/01/27 03:04:42;;;;;;;30.00;8.00;;;;;;;1.57;84.26;100868.15;106262;1270;25266;-60
2022/01/27 03:07:15;;;;;;;31.40;8.20;;;;;;;1.58;84.28;100867.99;106366;1270;22566;-63
2022/01/27 03:09:46;;;;;;;27.40;8.80;;;;;;;1.59;84.38;100864.67;106406;1270;24242;-62
2022/01/27 03:12:18;;;;;;;30.30;8.50;;;;;;;1.60;84.40;100867.17;106317;1270;25265;-62
2022/01/27 03:14:49;;;;;;;25.80;6.10;;;;;;;1.61;84.29;100863.48;106322;1270;22483;-60
2022/01/27 03:17:20;;;;;;;28.50;9.50;;;;;;;1.60;84.23;100860.49;106125;1270;25389;-61
2022/01/27 03:19:51;;;;;;;30.40;9.40;;;;;;;1.62;84.27;100864.26;106147;1270;22554;-61
2022/01/27 03:22:22;;;;;;;23.70;7.50;;;;;;;1.63;84.37;100865.97;106201;1271;22547;-62
2022/01/27 03:24:54;;;;;;;31.90;8.50;;;;;;;1.63;84.45;100861.73;106319;1270;24971;-61
2022/01/27 03:27:27;;;;;;;30.30;9.30;;;;;;;1.64;84.43;100858.34;106273;1270;22552;-61
2022/01/27 03:29:58;;;;;;;30.00;8.50;;;;;;;1.64;84.42;100855.13;106401;1270;25263;-61
2022/01/27 03:32:30;;;;;;;29.00;8.10;;;;;;;1.64;84.58;100849.38;106657;1270;22564;-61
2022/01/27 03:35:01;;;;;;;27.80;7.90;;;;;;;1.66;84.44;100842.05;106276;1270;22554;-69
2022/01/27 03:37:32;;;;;;;26.20;6.90;;;;;;;1.67;84.42;100842.36;106396;1270;22558;-61
2022/01/27 03:40:06;;;;;;;28.30;7.30;;;;;;;1.67;84.19;100837.17;106503;1270;22500;-61
2022/01/27 03:42:44;;;;;;;29.10;8.30;;;;;;;1.68;84.25;100834.89;106356;1270;23996;-62
2022/01/27 03:45:16;;;;;;;24.30;6.40;;;;;;;1.69;84.19;100830.16;106338;1270;22603;-62
2022/01/27 03:47:47;;;;;;;24.90;6.20;;;;;;;1.69;84.22;100831.82;106256;1270;22579;-62
2022/01/27 03:50:18;;;;;;;29.40;8.20;;;;;;;1.69;84.04;100829.45;106240;1271;22535;-61
2022/01/27 03:52:49;;;;;;;25.20;7.30;;;;;;;1.70;84.09;100825.38;106338;1270;24810;-60
2022/01/27 03:55:20;;;;;;;23.50;6.70;;;;;;;1.70;84.16;100820.17;106278;1270;24293;-61
2022/01/27 03:57:51;;;;;;;24.80;6.90;;;;;;;1.70;84.10;100818.92;106366;1270;25540;-59
2022/01/27 04:00:23;;;;;;;25.90;7.20;;;;;;;1.69;84.05;100812.23;106329;1270;25375;-62
2022/01/27 04:03:02;;;;;;;25.30;6.90;;;;;;;1.69;84.08;100803.27;106282;1270;22871;-61
2022/01/27 04:05:37;;;;;;;24.70;5.50;;;;;;;1.69;83.99;100812.79;106316;1270;22696;-61
2022/01/27 04:08:12;;;;;;;24.90;6.30;;;;;;;1.69;83.99;100807.68;106258;1270;22557;-61
2022/01/27 04:10:44;;;;;;;24.70;6.00;;;;;;;1.70;84.03;100803.90;106380;1270;24266;-60
2022/01/27 04:13:16;;;;;;;24.30;6.00;;;;;;;1.69;83.86;100800.45;106279;1270;22618;-61
2022/01/27 04:15:47;;;;;;;23.40;5.00;;;;;;;1.70;83.95;100806.27;106289;1270;22670;-61
2022/01/27 04:18:18;;;;;;;23.10;5.90;;;;;;;1.69;83.84;100799.89;106317;1270;22659;-61
2022/01/27 04:20:49;;;;;;;21.30;5.30;;;;;;;1.69;83.93;100791.79;106252;1270;22544;-61
2022/01/27 04:23:20;;;;;;;20.20;4.30;;;;;;;1.70;83.97;100798.39;106280;1270;22606;-63
2022/01/27 04:25:52;;;;;;;19.10;4.50;;;;;;;1.70;83.99;100796.27;106348;1270;22558;-60
2022/01/27 04:28:26;;;;;;;22.60;5.50;;;;;;;1.71;83.93;100797.05;106315;1270;23153;-60
2022/01/27 04:31:00;;;;;;;19.90;4.60;;;;;;;1.71;83.88;100794.21;106356;1270;24228;-62
2022/01/27 04:33:33;;;;;;;22.40;5.70;;;;;;;1.71;83.98;100795.23;106392;1270;24444;-61
2022/01/27 04:36:10;;;;;;;23.90;6.80;;;;;;;1.72;83.92;100794.52;106278;1270;24243;-60
2022/01/27 04:38:48;;;;;;;20.30;5.30;;;;;;;1.73;83.94;100782.88;106221;1271;25392;-62
2022/01/27 04:41:25;;;;;;;21.00;4.80;;;;;;;1.73;83.90;100779.58;106250;1270;22552;-63
2022/01/27 04:44:03;;;;;;;19.50;4.10;;;;;;;1.73;83.78;100773.52;106237;1270;22705;-62
2022/01/27 04:46:40;;;;;;;21.70;5.80;;;;;;;1.74;83.73;100763.05;106248;1270;25278;-62
2022/01/27 04:49:12;;;;;;;24.80;6.50;;;;;;;1.74;83.89;100761.95;106321;1270;22845;-62
2022/01/27 04:51:43;;;;;;;20.20;6.40;;;;;;;1.75;83.87;100769.08;106338;1270;22474;-63
2022/01/27 04:54:19;;;;;;;21.40;6.00;;;;;;;1.76;83.90;100761.05;106313;1270;22538;-62
2022/01/27 04:56:50;;;;;;;21.00;5.60;;;;;;;1.77;83.94;100754.60;106207;1270;22548;-61
2022/01/27 04:59:25;;;;;;;21.70;5.10;;;;;;;1.78;83.94;100753.96;106231;1270;25386;-61
2022/01/27 05:02:00;;;;;;;15.70;3.90;;;;;;;1.78;83.92;100754.73;106233;1270;22648;-61
2022/01/27 05:04:35;;;;;;;19.30;4.30;;;;;;;1.79;83.75;100750.02;106244;1270;22573;-61
2022/01/27 05:07:06;;;;;;;22.10;5.80;;;;;;;1.79;83.89;100749.31;106476;1270;22533;-63
2022/01/27 05:09:39;;;;;;;17.40;4.20;;;;;;;1.80;83.77;100748.68;106415;1271;24324;-62
2022/01/27 05:12:12;;;;;;;19.80;5.20;;;;;;;1.80;83.80;100744.73;106408;1270;23534;-62
2022/01/27 05:14:43;;;;;;;20.10;4.40;;;;;;;1.81;83.86;100739.47;106586;1271;22541;-63
2022/01/27 05:17:17;;;;;;;20.30;5.20;;;;;;;1.82;83.83;100735.92;106062;1271;25396;-60
2022/01/27 05:19:50;;;;;;;20.80;5.50;;;;;;;1.83;83.76;100724.82;106077;1270;22534;-60
2022/01/27 05:22:21;;;;;;;17.00;4.40;;;;;;;1.85;83.86;100727.71;106120;1271;25245;-61
2022/01/27 05:24:53;;;;;;;16.80;4.90;;;;;;;1.86;83.64;100724.09;106114;1270;25492;-61
2022/01/27 05:27:25;;;;;;;15.70;4.70;;;;;;;1.86;83.66;100726.29;106050;1272;23084;-60
2022/01/27 05:29:56;;;;;;;19.10;5.40;;;;;;;1.88;83.66;100721.55;106091;1271;22650;-61
2022/01/27 05:32:27;;;;;;;16.50;3.50;;;;;;;1.89;83.51;100721.52;106222;1271;25883;-62
2022/01/27 05:34:58;;;;;;;16.40;4.00;;;;;;;1.88;83.28;100719.66;106424;1271;23923;-62
2022/01/27 05:37:29;;;;;;;17.60;3.80;;;;;;;1.89;83.33;100716.65;106342;1271;24290;-59
2022/01/27 05:40:01;;;;;;;16.60;3.60;;;;;;;1.89;83.37;100714.45;106397;1271;24276;-60
2022/01/27 05:42:32;;;;;;;12.80;3.00;;;;;;;1.89;83.36;100720.11;106722;1270;26011;-60
2022/01/27 05:45:04;;;;;;;14.70;3.10;;;;;;;1.90;83.27;100708.45;106428;1271;22624;-62
2022/01/27 05:47:35;;;;;;;16.80;3.60;;;;;;;1.91;83.31;100711.75;106475;1271;24235;-62
2022/01/27 05:50:07;;;;;;;18.80;4.30;;;;;;;1.91;83.37;100701.59;106298;1271;24216;-60
2022/01/27 05:52:39;;;;;;;18.50;4.60;;;;;;;1.93;83.33;100693.48;106167;1271;22545;-60
2022/01/27 05:55:13;;;;;;;18.60;4.40;;;;;;;1.94;83.41;100687.89;106169;1270;26449;-61
2022/01/27 05:57:44;;;;;;;19.30;4.20;;;;;;;1.94;83.24;100688.77;107790;1270;24206;-62
2022/01/27 06:00:17;;;;;;;15.60;4.00;;;;;;;1.93;83.30;100686.95;106228;1270;23932;-61
2022/01/27 06:02:48;;;;;;;17.40;4.50;;;;;;;1.93;83.41;100684.13;107020;1270;22607;-61
2022/01/27 06:05:19;;;;;;;18.50;4.10;;;;;;;1.95;83.36;100684.02;106199;1270;25111;-60
2022/01/27 06:07:50;;;;;;;18.60;4.00;;;;;;;1.95;83.40;100684.57;106240;1271;22861;-61
2022/01/27 06:10:22;;;;;;;17.70;4.20;;;;;;;1.97;83.37;100687.86;106199;1271;24227;-61
2022/01/27 06:12:56;;;;;;;19.10;4.40;;;;;;;1.99;83.46;100697.20;106290;1271;24041;-61
2022/01/27 06:15:28;;;;;;;18.70;4.70;;;;;;;2.00;83.44;100700.65;106635;1271;25216;-61
2022/01/27 06:17:59;;;;;;;22.70;6.30;;;;;;;2.01;83.49;100701.41;106398;1270;22685;-60
2022/01/27 06:20:32;;;;;;;20.20;4.60;;;;;;;2.03;83.49;100693.23;106230;1271;25273;-61
2022/01/27 06:23:03;;;;;;;17.40;4.60;;;;;;;2.05;83.59;100695.10;106286;1271;23929;-61
2022/01/27 06:25:35;;;;;;;21.00;4.70;;;;;;;2.03;83.49;100697.39;107605;1271;26573;-62
2022/01/27 06:28:07;;;;;;;16.90;4.00;;;;;;;2.02;83.30;100693.86;106235;1270;24258;-62
2022/01/27 06:30:39;;;;;;;15.50;3.40;;;;;;;2.01;83.05;100690.80;106013;1272;22876;-63
2022/01/27 06:33:10;;;;;;;14.20;3.10;;;;;;;1.99;82.60;100693.34;106376;1270;24246;-62
2022/01/27 06:35:44;;;;;;;14.30;3.60;;;;;;;1.95;82.49;100684.34;106000;1271;24256;-63
2022/01/27 06:38:17;;;;;;;16.00;2.90;;;;;;;1.93;82.67;100679.79;106096;1271;22634;-62
2022/01/27 06:40:49;;;;;;;15.50;3.50;;;;;;;1.92;82.53;100677.98;106116;1270;22593;-61
2022/01/27 06:43:21;;;;;;;17.90;3.80;;;;;;;1.91;82.49;100674.78;106094;1271;25315;-62
2022/01/27 06:45:54;;;;;;;14.40;2.70;;;;;;;1.89;82.52;100674.81;106050;1271;22538;-62
2022/01/27 06:48:26;;;;;;;14.00;2.90;;;;;;;1.88;82.49;100681.42;106204;1270;25382;-62
2022/01/27 06:50:58;;;;;;;13.90;2.90;;;;;;;1.87;82.34;100682.45;106459;1271;24229;-60
2022/01/27 06:53:31;;;;;;;12.80;2.40;;;;;;;1.86;82.44;100678.39;106320;1270;22626;-62
2022/01/27 06:56:03;;;;;;;14.00;3.70;;;;;;;1.84;82.41;100678.88;106368;1271;22598;-60
2022/01/27 06:58:36;;;;;;;15.30;3.40;;;;;;;1.83;82.10;100679.83;106365;1271;22626;-62
2022/01/27 07:01:07;;;;;;;18.20;3.70;;;;;;;1.82;82.25;100673.38;106463;1271;22743;-61
2022/01/27 07:03:38;;;;;;;14.90;3.60;;;;;;;1.81;82.31;100672.84;106357;1270;25216;-61
2022/01/27 07:06:11;;;;;;;16.00;3.20;;;;;;;1.79;82.34;100675.69;106363;1271;26633;-61
2022/01/27 07:08:42;;;;;;;12.40;2.80;;;;;;;1.79;82.35;100682.47;106280;1271;22537;-59
2022/01/27 07:11:13;;;;;;;15.30;3.30;;;;;;;1.78;82.48;100681.30;106289;1271;22538;-61
2022/01/27 07:13:45;;;;;;;16.90;3.40;;;;;;;1.76;82.41;100672.83;106305;1271;23435;-60
2022/01/27 07:16:16;;;;;;;18.00;3.10;;;;;;;1.75;82.38;100673.78;106325;1270;24369;-61
2022/01/27 07:18:47;;;;;;;16.60;4.40;;;;;;;1.75;82.51;100661.74;106364;1270;25303;-60
2022/01/27 07:21:19;;;;;;;15.10;3.40;;;;;;;1.75;82.45;100651.20;106444;1271;22639;-61
2022/01/27 07:23:50;;;;;;;15.80;4.00;;;;;;;1.76;82.57;100645.77;107048;1271;23128;-61
2022/01/27 07:26:25;;;;;;;14.40;3.80;;;;;;;1.76;82.46;100637.90;107101;1271;24228;-61
2022/01/27 07:28:57;;;;;;;17.20;4.40;;;;;;;1.77;82.49;100634.05;106665;1270;22614;-61
2022/01/27 07:31:29;;;;;;;14.20;3.60;;;;;;;1.77;82.56;100636.08;106375;1270;22625;-61
2022/01/27 07:34:00;;;;;;;18.70;3.80;;;;;;;1.78;82.56;100630.56;106331;1270;22761;-61
2022/01/27 07:36:32;;;;;;;17.40;4.40;;;;;;;1.79;82.75;100628.74;106431;1271;22559;-61
2022/01/27 07:39:03;;;;;;;19.50;5.30;;;;;;;1.80;82.70;100631.02;106253;1271;22575;-61
2022/01/27 07:41:35;;;;;;;19.40;4.70;;;;;;;1.81;82.64;100628.80;106257;1271;24243;-61
2022/01/27 07:44:08;;;;;;;20.20;4.80;;;;;;;1.80;82.65;100623.69;106221;1271;22542;-60
2022/01/27 07:46:39;;;;;;;17.30;5.20;;;;;;;1.82;82.75;100623.84;106382;1271;22614;-60
2022/01/27 07:49:11;;;;;;;22.80;6.30;;;;;;;1.84;82.70;100620.75;106343;1270;22568;-61
2022/01/27 07:51:56;;;;;;;22.60;6.50;;;;;;;1.86;82.75;100615.38;106359;1271;22601;-61
2022/01/27 07:54:34;;;;;;;19.70;5.70;;;;;;;1.88;82.51;100610.86;106248;1271;22590;-61
2022/01/27 07:57:06;;;;;;;20.70;5.20;;;;;;;1.89;82.50;100601.96;106397;1270;24252;-61
2022/01/27 07:59:38;;;;;;;24.60;6.10;;;;;;;1.91;82.56;100589.59;106359;1271;22687;-60
2022/01/27 08:02:10;;;;;;;25.80;7.40;;;;;;;1.94;82.41;100587.29;106332;1270;24195;-60
2022/01/27 08:04:42;;;;;;;25.50;7.70;;;;;;;1.96;82.42;100585.99;106321;1270;25710;-60
2022/01/27 08:07:13;;;;;;;20.90;6.40;;;;;;;1.97;82.34;100585.35;106361;1271;22604;-60
2022/01/27 08:09:46;;;;;;;19.10;5.50;;;;;;;1.98;82.29;100584.95;106372;1271;22971;-60
2022/01/27 08:12:18;;;;;;;23.40;6.30;;;;;;;1.97;81.88;100588.81;106433;1270;25641;-60
2022/01/27 08:14:50;;;;;;;18.60;6.00;;;;;;;1.95;81.91;100585.30;106422;1271;24332;-59
2022/01/27 08:17:21;;;;;;;21.10;6.10;;;;;;;1.94;81.95;100589.25;106340;1271;22547;-60
2022/01/27 08:19:52;;;;;;;22.20;7.00;;;;;;;1.94;82.00;100598.13;106435;1271;24389;-59
2022/01/27 08:22:24;;;;;;;23.30;6.50;;;;;;;1.92;81.73;100606.96;106241;1271;25327;-60
2022/01/27 08:24:55;;;;;;;20.60;6.80;;;;;;;1.92;81.82;100607.36;106396;1270;26058;-60
2022/01/27 08:27:46;;;;;;;27.40;6.90;;;;;;;1.91;81.85;100594.31;106380;1271;24281;-61
2022/01/27 08:30:19;;;;;;;31.40;7.80;;;;;;;1.91;81.75;100588.02;106335;1271;25269;-61
2022/01/27 08:32:57;;;;;;;20.80;6.20;;;;;;;1.90;81.72;100573.48;106330;1270;22557;-61
2022/01/27 08:35:29;;;;;;;25.00;6.90;;;;;;;1.90;81.33;100556.66;106205;1271;22627;-61
2022/01/27 08:38:00;;;;;;;24.30;7.10;;;;;;;1.89;81.47;100559.02;106384;1271;24255;-60
2022/01/27 08:40:32;;;;;;;25.80;8.30;;;;;;;1.89;81.38;100557.61;106524;1271;25383;-60
2022/01/27 08:43:03;;;;;;;28.10;6.60;;;;;;;1.89;81.41;100562.95;106420;1270;25649;-60
2022/01/27 08:45:35;;;;;;;30.20;8.40;;;;;;;1.89;81.14;100561.14;106343;1271;22575;-61
2022/01/27 08:48:09;;;;;;;26.30;7.10;;;;;;;1.90;81.28;100571.60;106341;1270;25299;-60
2022/01/27 08:50:41;;;;;;;27.00;8.60;;;;;;;1.90;81.30;100557.99;106305;1271;22561;-61
2022/01/27 08:53:12;;;;;;;34.80;9.30;;;;;;;1.89;81.32;100548.16;106417;1271;25387;-61
2022/01/27 08:55:44;;;;;;;24.50;8.50;;;;;;;1.91;81.32;100541.52;106438;1271;24320;-61
2022/01/27 08:58:16;;;;;;;25.80;8.70;;;;;;;1.92;81.26;100542.39;106422;1271;22871;-61
2022/01/27 09:00:47;;;;;;;22.10;6.70;;;;;;;1.94;81.41;100535.11;106491;1271;22746;-60
2022/01/27 09:03:19;;;;;;;29.60;8.20;;;;;;;1.95;81.12;100525.44;106493;1270;25447;-60
2022/01/27 09:05:50;;;;;;;28.00;8.00;;;;;;;1.96;81.27;100517.55;106366;1271;25259;-60
2022/01/27 09:08:21;;;;;;;27.30;7.90;;;;;;;1.99;81.40;100512.48;106346;1271;22550;-60
2022/01/27 09:10:53;;;;;;;23.80;7.70;;;;;;;2.02;81.40;100506.77;106320;1271;22559;-60
2022/01/27 09:13:26;;;;;;;24.30;8.10;;;;;;;2.06;81.23;100514.19;106450;1270;22656;-60
2022/01/27 09:16:00;;;;;;;24.30;6.80;;;;;;;2.09;81.00;100522.41;106245;1271;22553;-61
2022/01/27 09:18:35;;;;;;;24.40;7.40;;;;;;;2.12;80.93;100522.92;106247;1271;24032;-62
2022/01/27 09:21:18;;;;;;;26.60;6.90;;;;;;;2.15;80.75;100513.59;106169;1270;25214;-62
2022/01/27 09:23:57;;;;;;;25.90;7.30;;;;;;;2.18;80.54;100514.10;106146;1271;22745;-64
2022/01/27 09:26:51;;;;;;;24.00;7.30;;;;;;;2.22;80.35;100507.75;106425;1271;22633;-64
2022/01/27 09:29:25;;;;;;;25.30;7.80;;;;;;;2.25;80.26;100496.60;106185;1271;25375;-61
2022/01/27 09:32:02;;;;;;;26.20;7.70;;;;;;;2.30;80.45;100497.77;106124;1271;26520;-61
2022/01/27 09:34:38;;;;;;;31.40;8.60;;;;;;;2.35;80.39;100495.17;106034;1271;22548;-61
2022/01/27 09:37:15;;;;;;;26.60;8.40;;;;;;;2.41;80.18;100492.27;106247;1271;22983;-68
2022/01/27 09:39:49;;;;;;;32.30;8.70;;;;;;;2.44;80.38;100482.77;105891;1271;22876;-60
2022/01/27 09:42:26;;;;;;;30.50;9.80;;;;;;;2.48;80.09;100483.96;105957;1271;24237;-62
2022/01/27 09:45:05;;;;;;;25.90;8.30;;;;;;;2.51;79.94;100470.22;105888;1271;25287;-61
2022/01/27 09:47:42;;;;;;;32.10;9.60;;;;;;;2.54;80.22;100468.67;106021;1271;22525;-62
2022/01/27 09:50:35;;;;;;;29.10;10.30;;;;;;;2.59;80.43;100464.02;105755;1271;26602;-61
2022/01/27 09:53:10;;;;;;;30.80;10.50;;;;;;;2.66;80.34;100449.48;105835;1271;25339;-61
2022/01/27 09:55:46;;;;;;;33.80;10.90;;;;;;;2.71;80.20;100446.08;105841;1271;22709;-62
2022/01/27 09:58:22;;;;;;;35.90;11.60;;;;;;;2.75;80.22;100439.56;105807;1274;22566;-61
2022/01/27 10:00:58;;;;;;;31.70;10.00;;;;;;;2.80;80.15;100440.80;106057;1270;22538;-62
2022/01/27 10:03:32;;;;;;;34.10;9.40;;;;;;;2.83;80.03;100435.94;106164;1271;22553;-62
2022/01/27 10:06:16;;;;;;;30.30;9.70;;;;;;;2.86;80.03;100433.05;106091;1271;22554;-62
2022/01/27 10:09:10;;;;;;;28.50;8.70;;;;;;;2.89;79.65;100431.66;106007;1270;24445;-61
2022/01/27 10:11:46;;;;;;;28.70;9.10;;;;;;;2.89;79.58;100433.61;105862;1271;24308;-63
2022/01/27 10:14:26;;;;;;;27.60;10.00;;;;;;;2.91;79.44;100433.90;105879;1271;25385;-60
2022/01/27 10:17:03;;;;;;;28.90;9.20;;;;;;;2.90;79.37;100432.98;105918;1271;25356;-63
2022/01/27 10:19:38;;;;;;;29.40;10.10;;;;;;;2.88;79.24;100427.02;105918;1271;24526;-61
2022/01/27 10:22:14;;;;;;;30.30;10.10;;;;;;;2.86;79.00;100416.44;105825;1271;22581;-61
2022/01/27 10:25:00;;;;;;;30.80;9.20;;;;;;;2.83;79.10;100414.04;105999;1271;24292;-63
2022/01/27 10:27:46;;;;;;;30.60;10.80;;;;;;;2.82;79.31;100410.74;106022;1271;22555;-64
2022/01/27 10:30:38;;;;;;;35.70;11.80;;;;;;;2.83;79.38;100405.30;105875;1271;22550;-58
2022/01/27 10:33:16;;;;;;;32.20;11.40;;;;;;;2.84;79.59;100393.39;106180;1271;22820;-58
2022/01/27 10:35:49;;;;;;;49.30;16.10;;;;;;;2.86;79.65;100385.94;105943;1271;22553;-57
2022/01/27 10:38:22;;;;;;;37.20;13.00;;;;;;;2.89;79.54;100384.70;106058;1271;24299;-58
2022/01/27 10:40:56;;;;;;;31.20;12.00;;;;;;;2.90;79.32;100382.95;105991;1271;25296;-57
2022/01/27 10:43:32;;;;;;;36.80;11.60;;;;;;;2.91;79.27;100371.67;105885;1271;22484;-59
2022/01/27 10:46:12;;;;;;;43.70;12.90;;;;;;;2.92;79.28;100368.73;105979;1271;22719;-59
2022/01/27 10:48:52;;;;;;;33.20;10.60;;;;;;;2.94;79.26;100367.90;105847;1271;27423;-58
2022/01/27 10:51:29;;;;;;;31.40;9.90;;;;;;;2.95;79.22;100365.45;105902;1271;24234;-61
2022/01/27 10:54:04;;;;;;;30.80;9.90;;;;;;;2.95;79.25;100358.11;105802;1271;23118;-59
2022/01/27 10:56:41;;;;;;;37.10;11.60;;;;;;;2.96;79.16;100354.70;105991;1271;22799;-59
2022/01/27 10:59:17;;;;;;;30.50;8.90;;;;;;;2.98;79.25;100352.54;105885;1271;22537;-59
2022/01/27 11:01:52;;;;;;;34.40;11.50;;;;;;;2.99;79.38;100342.04;105935;1271;25538;-59
2022/01/27 11:04:37;;;;;;;36.90;11.40;;;;;;;3.03;79.71;100340.52;105801;1271;22558;-61
2022/01/27 11:07:12;;;;;;;34.90;11.60;;;;;;;3.06;79.73;100339.28;105822;1272;22717;-59
2022/01/27 11:09:47;;;;;;;31.60;12.10;;;;;;;3.08;79.82;100335.92;105877;1271;25330;-59
2022/01/27 11:12:20;;;;;;;35.60;11.30;;;;;;;3.11;79.85;100331.45;106169;1271;25605;-61
2022/01/27 11:14:54;;;;;;;34.80;10.90;;;;;;;3.14;80.07;100329.91;106359;1271;22581;-60
2022/01/27 11:17:30;;;;;;;31.10;10.80;;;;;;;3.15;80.18;100330.90;106363;1271;24275;-61
2022/01/27 11:20:21;;;;;;;30.90;9.90;;;;;;;3.16;80.29;100330.26;106427;1271;26677;-59
2022/01/27 11:25:54;;;;;;;34.00;11.30;;;;;;;3.05;80.37;100315.34;106352;1274;22549;-59
2022/01/27 11:28:28;;;;;;;27.20;8.30;;;;;;;3.01;80.57;100311.64;106360;1274;22541;-60
2022/01/27 11:31:15;;;;;;;24.30;8.10;;;;;;;2.97;80.69;100310.41;106404;1274;22604;-58
2022/01/27 11:33:59;;;;;;;29.20;8.90;;;;;;;2.88;80.71;100306.17;106325;1274;25576;-60
2022/01/27 11:36:32;;;;;;;30.20;9.30;;;;;;;2.81;81.15;100302.79;106122;1274;22559;-59
2022/01/27 11:39:05;;;;;;;30.10;9.60;;;;;;;2.73;81.45;100296.02;106181;1274;22553;-58
2022/01/27 11:41:42;;;;;;;28.30;9.70;;;;;;;2.65;81.73;100295.25;106116;1274;23044;-60
2022/01/27 11:44:33;;;;;;;30.00;9.30;;;;;;;2.59;82.07;100289.69;106327;1274;24332;-57
2022/01/27 11:47:23;;;;;;;27.50;9.50;;;;;;;2.56;82.50;100272.02;106367;1274;22548;-60
2022/01/27 11:50:04;;;;;;;32.10;10.80;;;;;;;2.55;82.56;100269.74;106426;1274;24400;-58
2022/01/27 11:52:48;;;;;;;30.90;10.50;;;;;;;2.56;82.72;100260.38;106333;1274;25517;-58
2022/01/27 11:55:49;;;;;;;32.90;11.10;;;;;;;2.58;82.90;100254.59;106388;1274;22661;-58
2022/01/27 11:58:23;;;;;;;32.00;10.70;;;;;;;2.61;83.12;100260.91;105933;1281;24033;-58
2022/01/27 12:01:22;;;;;;;35.20;11.70;;;;;;;2.64;83.15;100263.50;106094;1281;22751;-59
2022/01/27 12:04:16;;;;;;;35.60;12.20;;;;;;;2.68;83.15;100261.38;106255;1277;22533;-58
2022/01/27 12:07:08;;;;;;;30.00;11.10;;;;;;;2.70;83.08;100259.60;106301;1277;23228;-60
2022/01/27 12:09:41;;;;;;;34.70;12.20;;;;;;;2.71;83.21;100253.13;106231;1276;22659;-59
2022/01/27 12:12:33;;;;;;;40.10;12.80;;;;;;;2.73;83.29;100244.41;106218;1277;22805;-58